sensor_id;sensor_type;location;lat;lon;timestamp;P1;durP1;ratioP1;P2;durP2;ratioP2
67185;SDS011;54116;53.518;49.398;2023-03-19T00:01:58;4.78;;;0.93;;
67185;SDS011;54116;53.518;49.398;2023-03-19T00:04:25;3.83;;;0.88;;
67185;SDS011;54116;53.518;49.398;2023-03-19T00:06:52;7.10;;;1.33;;
67185;SDS011;54116;53.518;49.398;2023-03-19T00:09:19;4.22;;;1.23;;
67185;SDS011;54116;53.518;49.398;2023-03-19T00:11:46;4.78;;;0.90;;
67185;SDS011;54116;53.518;49.398;2023-03-19T00:14:13;4.15;;;1.05;;
67185;SDS011;54116;53.518;49.398;2023-03-19T00:16:40;2.88;;;0.95;;
67185;SDS011;54116;53.518;49.398;2023-03-19T00:21:33;1.67;;;0.73;;
67185;SDS011;54116;53.518;49.398;2023-03-19T00:23:59;2.65;;;0.82;;
67185;SDS011;54116;53.518;49.398;2023-03-19T00:26:27;2.65;;;0.75;;
67185;SDS011;54116;53.518;49.398;2023-03-19T00:28:55;3.85;;;0.90;;
67185;SDS011;54116;53.518;49.398;2023-03-19T00:31:22;3.35;;;0.82;;
67185;SDS011;54116;53.518;49.398;2023-03-19T00:33:48;2.50;;;0.88;;
67185;SDS011;54116;53.518;49.398;2023-03-19T00:36:15;1.92;;;0.90;;
67185;SDS011;54116;53.518;49.398;2023-03-19T00:41:08;5.53;;;0.80;;
67185;SDS011;54116;53.518;49.398;2023-03-19T00:43:34;1.60;;;0.73;;
67185;SDS011;54116;53.518;49.398;2023-03-19T00:46:02;4.63;;;1.02;;
67185;SDS011;54116;53.518;49.398;2023-03-19T00:48:29;2.17;;;0.65;;
67185;SDS011;54116;53.518;49.398;2023-03-19T00:51:00;4.32;;;1.13;;
67185;SDS011;54116;53.518;49.398;2023-03-19T00:53:38;2.92;;;1.20;;
67185;SDS011;54116;53.518;49.398;2023-03-19T00:56:07;6.47;;;1.10;;
67185;SDS011;54116;53.518;49.398;2023-03-19T00:58:34;5.60;;;1.13;;
67185;SDS011;54116;53.518;49.398;2023-03-19T01:03:27;5.85;;;1.40;;
67185;SDS011;54116;53.518;49.398;2023-03-19T01:05:53;7.63;;;1.63;;
67185;SDS011;54116;53.518;49.398;2023-03-19T01:08:19;4.35;;;1.45;;
67185;SDS011;54116;53.518;49.398;2023-03-19T01:10:45;4.07;;;1.67;;
67185;SDS011;54116;53.518;49.398;2023-03-19T01:13:12;5.43;;;1.17;;
67185;SDS011;54116;53.518;49.398;2023-03-19T01:15:40;3.83;;;1.15;;
67185;SDS011;54116;53.518;49.398;2023-03-19T01:18:08;3.90;;;1.15;;
67185;SDS011;54116;53.518;49.398;2023-03-19T01:20:36;3.05;;;0.88;;
67185;SDS011;54116;53.518;49.398;2023-03-19T01:23:04;3.83;;;1.10;;
67185;SDS011;54116;53.518;49.398;2023-03-19T01:25:31;4.32;;;1.00;;
67185;SDS011;54116;53.518;49.398;2023-03-19T01:27:58;2.72;;;0.93;;
67185;SDS011;54116;53.518;49.398;2023-03-19T01:30:24;2.80;;;1.00;;
67185;SDS011;54116;53.518;49.398;2023-03-19T01:32:51;4.38;;;0.85;;
67185;SDS011;54116;53.518;49.398;2023-03-19T01:37:43;4.07;;;1.20;;
67185;SDS011;54116;53.518;49.398;2023-03-19T01:40:11;2.95;;;0.95;;
67185;SDS011;54116;53.518;49.398;2023-03-19T01:45:30;4.95;;;0.93;;
67185;SDS011;54116;53.518;49.398;2023-03-19T01:47:58;3.47;;;0.90;;
67185;SDS011;54116;53.518;49.398;2023-03-19T01:50:28;1.75;;;0.73;;
67185;SDS011;54116;53.518;49.398;2023-03-19T01:53:02;4.70;;;1.67;;
67185;SDS011;54116;53.518;49.398;2023-03-19T01:55:29;2.15;;;0.88;;
67185;SDS011;54116;53.518;49.398;2023-03-19T01:57:56;2.58;;;1.05;;
67185;SDS011;54116;53.518;49.398;2023-03-19T02:02:50;3.40;;;1.27;;
67185;SDS011;54116;53.518;49.398;2023-03-19T02:05:18;3.60;;;1.05;;
67185;SDS011;54116;53.518;49.398;2023-03-19T02:07:51;6.65;;;1.25;;
67185;SDS011;54116;53.518;49.398;2023-03-19T02:10:19;5.78;;;1.85;;
67185;SDS011;54116;53.518;49.398;2023-03-19T02:12:47;5.43;;;1.60;;
67185;SDS011;54116;53.518;49.398;2023-03-19T02:15:13;8.65;;;1.67;;
67185;SDS011;54116;53.518;49.398;2023-03-19T02:17:40;7.57;;;1.77;;
67185;SDS011;54116;53.518;49.398;2023-03-19T02:20:16;8.90;;;1.77;;
67185;SDS011;54116;53.518;49.398;2023-03-19T02:23:02;11.60;;;1.92;;
67185;SDS011;54116;53.518;49.398;2023-03-19T02:26:02;6.43;;;1.52;;
67185;SDS011;54116;53.518;49.398;2023-03-19T02:28:29;10.60;;;1.98;;
67185;SDS011;54116;53.518;49.398;2023-03-19T02:30:57;8.18;;;2.17;;
67185;SDS011;54116;53.518;49.398;2023-03-19T02:33:25;11.48;;;2.55;;
67185;SDS011;54116;53.518;49.398;2023-03-19T02:35:51;7.55;;;2.40;;
67185;SDS011;54116;53.518;49.398;2023-03-19T02:38:19;9.82;;;2.78;;
67185;SDS011;54116;53.518;49.398;2023-03-19T02:40:48;7.82;;;2.55;;
67185;SDS011;54116;53.518;49.398;2023-03-19T02:43:19;7.55;;;2.33;;
67185;SDS011;54116;53.518;49.398;2023-03-19T02:45:46;8.57;;;2.08;;
67185;SDS011;54116;53.518;49.398;2023-03-19T02:48:13;7.40;;;2.58;;
67185;SDS011;54116;53.518;49.398;2023-03-19T02:50:39;6.35;;;2.25;;
67185;SDS011;54116;53.518;49.398;2023-03-19T02:53:06;9.02;;;2.65;;
67185;SDS011;54116;53.518;49.398;2023-03-19T02:55:32;9.15;;;2.17;;
67185;SDS011;54116;53.518;49.398;2023-03-19T02:57:59;8.35;;;2.28;;
67185;SDS011;54116;53.518;49.398;2023-03-19T03:00:25;7.28;;;1.98;;
67185;SDS011;54116;53.518;49.398;2023-03-19T03:02:53;7.47;;;2.35;;
67185;SDS011;54116;53.518;49.398;2023-03-19T03:05:21;8.65;;;3.03;;
67185;SDS011;54116;53.518;49.398;2023-03-19T03:07:48;6.68;;;2.17;;
67185;SDS011;54116;53.518;49.398;2023-03-19T03:10:14;9.90;;;3.10;;
67185;SDS011;54116;53.518;49.398;2023-03-19T03:12:41;7.88;;;2.17;;
67185;SDS011;54116;53.518;49.398;2023-03-19T03:17:38;12.82;;;2.33;;
67185;SDS011;54116;53.518;49.398;2023-03-19T03:20:06;6.35;;;2.13;;
67185;SDS011;54116;53.518;49.398;2023-03-19T03:22:34;6.60;;;2.00;;
67185;SDS011;54116;53.518;49.398;2023-03-19T03:27:26;5.68;;;1.80;;
67185;SDS011;54116;53.518;49.398;2023-03-19T03:29:53;7.53;;;3.03;;
67185;SDS011;54116;53.518;49.398;2023-03-19T03:32:19;5.50;;;1.85;;
67185;SDS011;54116;53.518;49.398;2023-03-19T03:37:11;7.68;;;1.83;;
67185;SDS011;54116;53.518;49.398;2023-03-19T03:39:38;10.40;;;1.90;;
67185;SDS011;54116;53.518;49.398;2023-03-19T03:42:04;6.60;;;1.25;;
67185;SDS011;54116;53.518;49.398;2023-03-19T03:44:32;5.88;;;1.88;;
67185;SDS011;54116;53.518;49.398;2023-03-19T03:46:59;13.43;;;2.33;;
67185;SDS011;54116;53.518;49.398;2023-03-19T03:49:26;5.68;;;1.70;;
67185;SDS011;54116;53.518;49.398;2023-03-19T03:51:52;6.07;;;1.90;;
67185;SDS011;54116;53.518;49.398;2023-03-19T03:54:19;5.97;;;1.50;;
67185;SDS011;54116;53.518;49.398;2023-03-19T03:56:46;4.60;;;1.35;;
67185;SDS011;54116;53.518;49.398;2023-03-19T04:01:38;4.78;;;1.23;;
67185;SDS011;54116;53.518;49.398;2023-03-19T04:04:04;4.22;;;1.33;;
67185;SDS011;54116;53.518;49.398;2023-03-19T04:08:57;6.53;;;1.30;;
67185;SDS011;54116;53.518;49.398;2023-03-19T04:11:23;4.25;;;1.23;;
67185;SDS011;54116;53.518;49.398;2023-03-19T04:13:49;4.82;;;1.15;;
67185;SDS011;54116;53.518;49.398;2023-03-19T04:16:15;4.53;;;1.33;;
67185;SDS011;54116;53.518;49.398;2023-03-19T04:18:42;4.60;;;1.30;;
67185;SDS011;54116;53.518;49.398;2023-03-19T04:21:08;4.88;;;1.33;;
67185;SDS011;54116;53.518;49.398;2023-03-19T04:26:03;6.07;;;1.38;;
67185;SDS011;54116;53.518;49.398;2023-03-19T04:28:30;4.07;;;1.25;;
67185;SDS011;54116;53.518;49.398;2023-03-19T04:31:00;6.60;;;1.27;;
67185;SDS011;54116;53.518;49.398;2023-03-19T04:33:27;4.63;;;1.42;;
67185;SDS011;54116;53.518;49.398;2023-03-19T04:35:54;6.15;;;1.70;;
67185;SDS011;54116;53.518;49.398;2023-03-19T04:38:22;6.22;;;1.95;;
67185;SDS011;54116;53.518;49.398;2023-03-19T04:40:51;5.65;;;1.50;;
67185;SDS011;54116;53.518;49.398;2023-03-19T04:43:18;8.13;;;1.67;;
67185;SDS011;54116;53.518;49.398;2023-03-19T04:45:44;5.00;;;1.70;;
67185;SDS011;54116;53.518;49.398;2023-03-19T04:48:11;5.97;;;1.33;;
67185;SDS011;54116;53.518;49.398;2023-03-19T04:50:37;6.93;;;2.55;;
67185;SDS011;54116;53.518;49.398;2023-03-19T04:53:04;3.92;;;1.40;;
67185;SDS011;54116;53.518;49.398;2023-03-19T05:00:23;5.55;;;1.63;;
67185;SDS011;54116;53.518;49.398;2023-03-19T05:02:50;3.47;;;1.23;;
67185;SDS011;54116;53.518;49.398;2023-03-19T05:05:17;5.22;;;1.50;;
67185;SDS011;54116;53.518;49.398;2023-03-19T05:10:09;10.18;;;1.80;;
67185;SDS011;54116;53.518;49.398;2023-03-19T05:12:36;5.47;;;1.50;;
67185;SDS011;54116;53.518;49.398;2023-03-19T05:15:02;6.07;;;1.58;;
67185;SDS011;54116;53.518;49.398;2023-03-19T05:17:30;8.00;;;1.88;;
67185;SDS011;54116;53.518;49.398;2023-03-19T05:19:57;6.93;;;1.65;;
67185;SDS011;54116;53.518;49.398;2023-03-19T05:22:23;7.28;;;1.70;;
67185;SDS011;54116;53.518;49.398;2023-03-19T05:27:15;6.32;;;1.67;;
67185;SDS011;54116;53.518;49.398;2023-03-19T05:29:42;5.10;;;1.60;;
67185;SDS011;54116;53.518;49.398;2023-03-19T05:34:35;7.28;;;1.90;;
67185;SDS011;54116;53.518;49.398;2023-03-19T05:37:02;4.65;;;1.67;;
67185;SDS011;54116;53.518;49.398;2023-03-19T05:39:28;7.18;;;2.40;;
67185;SDS011;54116;53.518;49.398;2023-03-19T05:44:20;6.15;;;2.00;;
67185;SDS011;54116;53.518;49.398;2023-03-19T05:46:47;6.32;;;1.80;;
67185;SDS011;54116;53.518;49.398;2023-03-19T05:49:14;6.40;;;2.10;;
67185;SDS011;54116;53.518;49.398;2023-03-19T05:51:40;6.80;;;2.05;;
67185;SDS011;54116;53.518;49.398;2023-03-19T05:56:33;4.65;;;1.65;;
67185;SDS011;54116;53.518;49.398;2023-03-19T05:59:00;7.05;;;1.92;;
67185;SDS011;54116;53.518;49.398;2023-03-19T06:01:26;6.68;;;2.03;;
67185;SDS011;54116;53.518;49.398;2023-03-19T06:03:52;7.10;;;2.42;;
67185;SDS011;54116;53.518;49.398;2023-03-19T06:06:18;5.20;;;1.88;;
67185;SDS011;54116;53.518;49.398;2023-03-19T06:08:45;11.65;;;2.22;;
67185;SDS011;54116;53.518;49.398;2023-03-19T06:11:11;8.70;;;2.38;;
67185;SDS011;54116;53.518;49.398;2023-03-19T06:13:37;8.40;;;2.60;;
67185;SDS011;54116;53.518;49.398;2023-03-19T06:16:04;9.25;;;2.47;;
67185;SDS011;54116;53.518;49.398;2023-03-19T06:18:32;6.55;;;1.75;;
67185;SDS011;54116;53.518;49.398;2023-03-19T06:20:58;7.97;;;2.88;;
67185;SDS011;54116;53.518;49.398;2023-03-19T06:23:24;9.43;;;3.20;;
67185;SDS011;54116;53.518;49.398;2023-03-19T06:25:51;7.55;;;2.30;;
67185;SDS011;54116;53.518;49.398;2023-03-19T06:28:17;7.65;;;2.22;;
67185;SDS011;54116;53.518;49.398;2023-03-19T06:30:43;6.43;;;1.77;;
67185;SDS011;54116;53.518;49.398;2023-03-19T06:33:10;3.83;;;1.67;;
67185;SDS011;54116;53.518;49.398;2023-03-19T06:35:36;3.53;;;1.73;;
67185;SDS011;54116;53.518;49.398;2023-03-19T06:38:02;5.45;;;1.50;;
67185;SDS011;54116;53.518;49.398;2023-03-19T06:40:29;7.50;;;2.05;;
67185;SDS011;54116;53.518;49.398;2023-03-19T06:42:55;8.73;;;3.58;;
67185;SDS011;54116;53.518;49.398;2023-03-19T06:45:21;9.80;;;3.22;;
67185;SDS011;54116;53.518;49.398;2023-03-19T06:47:48;6.45;;;2.78;;
67185;SDS011;54116;53.518;49.398;2023-03-19T06:50:15;5.55;;;1.52;;
67185;SDS011;54116;53.518;49.398;2023-03-19T06:52:42;5.88;;;2.03;;
67185;SDS011;54116;53.518;49.398;2023-03-19T06:55:09;5.32;;;1.95;;
67185;SDS011;54116;53.518;49.398;2023-03-19T06:57:37;6.22;;;1.92;;
67185;SDS011;54116;53.518;49.398;2023-03-19T07:00:03;5.28;;;1.42;;
67185;SDS011;54116;53.518;49.398;2023-03-19T07:02:31;4.35;;;1.48;;
67185;SDS011;54116;53.518;49.398;2023-03-19T07:04:57;3.78;;;1.30;;
67185;SDS011;54116;53.518;49.398;2023-03-19T07:07:24;3.63;;;1.33;;
67185;SDS011;54116;53.518;49.398;2023-03-19T07:09:50;4.85;;;1.65;;
67185;SDS011;54116;53.518;49.398;2023-03-19T07:12:16;4.63;;;1.77;;
67185;SDS011;54116;53.518;49.398;2023-03-19T07:17:09;4.93;;;1.38;;
67185;SDS011;54116;53.518;49.398;2023-03-19T07:19:36;4.85;;;1.52;;
67185;SDS011;54116;53.518;49.398;2023-03-19T07:24:28;6.85;;;1.95;;
67185;SDS011;54116;53.518;49.398;2023-03-19T07:26:55;7.75;;;2.05;;
67185;SDS011;54116;53.518;49.398;2023-03-19T07:29:21;6.28;;;2.38;;
67185;SDS011;54116;53.518;49.398;2023-03-19T07:31:48;5.35;;;2.22;;
67185;SDS011;54116;53.518;49.398;2023-03-19T07:41:32;8.63;;;2.30;;
67185;SDS011;54116;53.518;49.398;2023-03-19T07:46:25;5.25;;;1.92;;
67185;SDS011;54116;53.518;49.398;2023-03-19T07:48:51;8.80;;;2.65;;
67185;SDS011;54116;53.518;49.398;2023-03-19T07:51:18;7.10;;;1.83;;
67185;SDS011;54116;53.518;49.398;2023-03-19T07:53:44;5.53;;;1.77;;
67185;SDS011;54116;53.518;49.398;2023-03-19T07:56:11;6.40;;;1.95;;
67185;SDS011;54116;53.518;49.398;2023-03-19T07:58:38;5.03;;;1.98;;
67185;SDS011;54116;53.518;49.398;2023-03-19T08:01:04;6.15;;;2.50;;
67185;SDS011;54116;53.518;49.398;2023-03-19T08:03:31;7.25;;;2.08;;
67185;SDS011;54116;53.518;49.398;2023-03-19T08:05:58;6.72;;;2.78;;
67185;SDS011;54116;53.518;49.398;2023-03-19T08:08:24;5.45;;;2.30;;
67185;SDS011;54116;53.518;49.398;2023-03-19T08:10:52;7.10;;;2.78;;
67185;SDS011;54116;53.518;49.398;2023-03-19T08:13:19;8.15;;;2.85;;
67185;SDS011;54116;53.518;49.398;2023-03-19T08:15:45;5.65;;;2.47;;
67185;SDS011;54116;53.518;49.398;2023-03-19T08:18:12;6.10;;;2.28;;
67185;SDS011;54116;53.518;49.398;2023-03-19T08:20:38;5.45;;;2.22;;
67185;SDS011;54116;53.518;49.398;2023-03-19T08:23:04;6.22;;;2.20;;
67185;SDS011;54116;53.518;49.398;2023-03-19T08:25:31;7.65;;;2.33;;
67185;SDS011;54116;53.518;49.398;2023-03-19T08:27:58;7.90;;;3.20;;
67185;SDS011;54116;53.518;49.398;2023-03-19T08:30:25;5.88;;;2.38;;
67185;SDS011;54116;53.518;49.398;2023-03-19T08:32:51;7.60;;;2.40;;
67185;SDS011;54116;53.518;49.398;2023-03-19T08:35:18;6.95;;;3.40;;
67185;SDS011;54116;53.518;49.398;2023-03-19T08:37:44;7.35;;;2.42;;
67185;SDS011;54116;53.518;49.398;2023-03-19T08:40:11;5.68;;;2.70;;
67185;SDS011;54116;53.518;49.398;2023-03-19T08:46:00;6.70;;;2.85;;
67185;SDS011;54116;53.518;49.398;2023-03-19T08:48:26;6.88;;;2.60;;
67185;SDS011;54116;53.518;49.398;2023-03-19T08:50:57;6.15;;;2.85;;
67185;SDS011;54116;53.518;49.398;2023-03-19T08:53:25;7.05;;;3.20;;
67185;SDS011;54116;53.518;49.398;2023-03-19T08:55:56;10.20;;;2.65;;
67185;SDS011;54116;53.518;49.398;2023-03-19T08:58:23;7.13;;;2.65;;
67185;SDS011;54116;53.518;49.398;2023-03-19T09:00:52;5.50;;;2.38;;
67185;SDS011;54116;53.518;49.398;2023-03-19T09:03:18;6.47;;;3.13;;
67185;SDS011;54116;53.518;49.398;2023-03-19T09:05:46;5.93;;;3.08;;
67185;SDS011;54116;53.518;49.398;2023-03-19T09:08:12;6.13;;;2.85;;
67185;SDS011;54116;53.518;49.398;2023-03-19T09:10:38;6.38;;;2.20;;
67185;SDS011;54116;53.518;49.398;2023-03-19T09:13:05;7.20;;;2.45;;
67185;SDS011;54116;53.518;49.398;2023-03-19T09:15:32;5.65;;;1.95;;
67185;SDS011;54116;53.518;49.398;2023-03-19T09:17:58;6.72;;;3.00;;
67185;SDS011;54116;53.518;49.398;2023-03-19T09:20:25;7.57;;;3.30;;
67185;SDS011;54116;53.518;49.398;2023-03-19T09:22:51;6.50;;;2.83;;
67185;SDS011;54116;53.518;49.398;2023-03-19T09:25:17;6.40;;;2.42;;
67185;SDS011;54116;53.518;49.398;2023-03-19T09:27:44;7.18;;;2.50;;
67185;SDS011;54116;53.518;49.398;2023-03-19T09:30:10;10.68;;;2.92;;
67185;SDS011;54116;53.518;49.398;2023-03-19T09:32:37;7.35;;;3.00;;
67185;SDS011;54116;53.518;49.398;2023-03-19T09:35:04;6.50;;;2.83;;
67185;SDS011;54116;53.518;49.398;2023-03-19T09:37:30;7.05;;;2.78;;
67185;SDS011;54116;53.518;49.398;2023-03-19T09:39:56;7.72;;;3.10;;
67185;SDS011;54116;53.518;49.398;2023-03-19T09:45:11;7.18;;;2.53;;
67185;SDS011;54116;53.518;49.398;2023-03-19T09:47:41;6.03;;;2.17;;
67185;SDS011;54116;53.518;49.398;2023-03-19T09:50:10;8.85;;;3.83;;
67185;SDS011;54116;53.518;49.398;2023-03-19T09:55:45;6.50;;;2.72;;
67185;SDS011;54116;53.518;49.398;2023-03-19T09:58:16;5.95;;;2.80;;
67185;SDS011;54116;53.518;49.398;2023-03-19T10:00:47;6.82;;;2.13;;
67185;SDS011;54116;53.518;49.398;2023-03-19T10:17:38;8.55;;;2.58;;
67185;SDS011;54116;53.518;49.398;2023-03-19T10:20:45;10.15;;;2.97;;
67185;SDS011;54116;53.518;49.398;2023-03-19T10:23:28;8.63;;;2.25;;
67185;SDS011;54116;53.518;49.398;2023-03-19T10:25:57;8.02;;;2.67;;
67185;SDS011;54116;53.518;49.398;2023-03-19T10:28:26;6.13;;;2.63;;
67185;SDS011;54116;53.518;49.398;2023-03-19T10:30:54;51.17;;;13.73;;
67185;SDS011;54116;53.518;49.398;2023-03-19T10:36:36;7.70;;;2.85;;
67185;SDS011;54116;53.518;49.398;2023-03-19T10:39:03;8.63;;;1.85;;
67185;SDS011;54116;53.518;49.398;2023-03-19T10:44:35;12.02;;;4.80;;
67185;SDS011;54116;53.518;49.398;2023-03-19T10:47:12;7.38;;;2.75;;
67185;SDS011;54116;53.518;49.398;2023-03-19T10:49:40;4.93;;;2.58;;
67185;SDS011;54116;53.518;49.398;2023-03-19T10:52:15;9.80;;;2.72;;
67185;SDS011;54116;53.518;49.398;2023-03-19T10:54:44;4.50;;;1.90;;
67185;SDS011;54116;53.518;49.398;2023-03-19T10:57:21;5.13;;;2.05;;
67185;SDS011;54116;53.518;49.398;2023-03-19T10:59:52;7.43;;;2.85;;
67185;SDS011;54116;53.518;49.398;2023-03-19T11:02:21;5.97;;;2.10;;
67185;SDS011;54116;53.518;49.398;2023-03-19T11:05:37;5.45;;;2.40;;
67185;SDS011;54116;53.518;49.398;2023-03-19T11:07:38;7.85;;;2.10;;
67185;SDS011;54116;53.518;49.398;2023-03-19T11:10:13;8.63;;;2.25;;
67185;SDS011;54116;53.518;49.398;2023-03-19T11:12:40;7.53;;;3.08;;
67185;SDS011;54116;53.518;49.398;2023-03-19T11:17:48;7.95;;;2.70;;
67185;SDS011;54116;53.518;49.398;2023-03-19T11:23:00;4.60;;;2.25;;
67185;SDS011;54116;53.518;49.398;2023-03-19T11:25:30;7.55;;;2.55;;
67185;SDS011;54116;53.518;49.398;2023-03-19T11:28:04;5.82;;;2.50;;
67185;SDS011;54116;53.518;49.398;2023-03-19T11:30:54;13.15;;;3.90;;
67185;SDS011;54116;53.518;49.398;2023-03-19T11:33:53;8.57;;;3.55;;
67185;SDS011;54116;53.518;49.398;2023-03-19T11:36:36;6.72;;;2.55;;
67185;SDS011;54116;53.518;49.398;2023-03-19T11:39:16;6.22;;;2.70;;
67185;SDS011;54116;53.518;49.398;2023-03-19T11:56:41;7.68;;;2.60;;
67185;SDS011;54116;53.518;49.398;2023-03-19T12:07:36;6.85;;;3.00;;
67185;SDS011;54116;53.518;49.398;2023-03-19T12:13:10;11.93;;;4.13;;
67185;SDS011;54116;53.518;49.398;2023-03-19T12:25:17;8.23;;;3.90;;
67185;SDS011;54116;53.518;49.398;2023-03-19T12:28:25;8.85;;;3.70;;
67185;SDS011;54116;53.518;49.398;2023-03-19T12:33:48;10.32;;;3.95;;
67185;SDS011;54116;53.518;49.398;2023-03-19T12:36:28;8.98;;;4.22;;
67185;SDS011;54116;53.518;49.398;2023-03-19T12:39:04;9.13;;;4.22;;
67185;SDS011;54116;53.518;49.398;2023-03-19T12:41:38;11.07;;;4.57;;
67185;SDS011;54116;53.518;49.398;2023-03-19T12:44:09;12.13;;;5.13;;
67185;SDS011;54116;53.518;49.398;2023-03-19T12:46:40;10.45;;;5.32;;
67185;SDS011;54116;53.518;49.398;2023-03-19T12:54:58;13.25;;;5.60;;
67185;SDS011;54116;53.518;49.398;2023-03-19T13:00:30;9.52;;;4.90;;
67185;SDS011;54116;53.518;49.398;2023-03-19T13:05:33;11.55;;;5.30;;
67185;SDS011;54116;53.518;49.398;2023-03-19T13:10:51;11.15;;;5.47;;
67185;SDS011;54116;53.518;49.398;2023-03-19T13:13:22;14.52;;;7.30;;
67185;SDS011;54116;53.518;49.398;2023-03-19T13:16:06;13.60;;;7.10;;
67185;SDS011;54116;53.518;49.398;2023-03-19T13:18:42;14.65;;;6.88;;
67185;SDS011;54116;53.518;49.398;2023-03-19T13:21:22;13.93;;;6.22;;
67185;SDS011;54116;53.518;49.398;2023-03-19T13:24:35;14.98;;;6.25;;
67185;SDS011;54116;53.518;49.398;2023-03-19T13:26:47;13.57;;;5.70;;
67185;SDS011;54116;53.518;49.398;2023-03-19T13:29:16;14.60;;;6.65;;
67185;SDS011;54116;53.518;49.398;2023-03-19T13:31:48;14.43;;;5.85;;
67185;SDS011;54116;53.518;49.398;2023-03-19T13:34:19;16.00;;;7.35;;
67185;SDS011;54116;53.518;49.398;2023-03-19T13:36:53;16.60;;;7.25;;
67185;SDS011;54116;53.518;49.398;2023-03-19T13:39:35;15.15;;;6.35;;
67185;SDS011;54116;53.518;49.398;2023-03-19T13:47:40;16.35;;;7.85;;
67185;SDS011;54116;53.518;49.398;2023-03-19T14:03:17;18.13;;;8.80;;
67185;SDS011;54116;53.518;49.398;2023-03-19T14:05:50;18.25;;;8.18;;
67185;SDS011;54116;53.518;49.398;2023-03-19T14:08:28;18.95;;;8.88;;
67185;SDS011;54116;53.518;49.398;2023-03-19T14:10:59;21.65;;;9.88;;
67185;SDS011;54116;53.518;49.398;2023-03-19T14:13:33;20.65;;;9.32;;
67185;SDS011;54116;53.518;49.398;2023-03-19T14:16:28;17.17;;;8.70;;
67185;SDS011;54116;53.518;49.398;2023-03-19T14:19:02;24.27;;;9.93;;
67185;SDS011;54116;53.518;49.398;2023-03-19T14:26:55;22.67;;;9.75;;
67185;SDS011;54116;53.518;49.398;2023-03-19T14:29:27;19.75;;;9.52;;
67185;SDS011;54116;53.518;49.398;2023-03-19T14:31:54;20.67;;;9.77;;
67185;SDS011;54116;53.518;49.398;2023-03-19T14:34:39;20.50;;;9.63;;
67185;SDS011;54116;53.518;49.398;2023-03-19T14:37:19;20.33;;;9.52;;
67185;SDS011;54116;53.518;49.398;2023-03-19T14:39:53;19.80;;;9.18;;
67185;SDS011;54116;53.518;49.398;2023-03-19T14:42:29;23.73;;;9.40;;
67185;SDS011;54116;53.518;49.398;2023-03-19T14:47:41;21.27;;;10.02;;
67185;SDS011;54116;53.518;49.398;2023-03-19T14:50:30;21.50;;;9.68;;
67185;SDS011;54116;53.518;49.398;2023-03-19T14:53:12;20.92;;;9.95;;
67185;SDS011;54116;53.518;49.398;2023-03-19T14:55:41;25.52;;;9.70;;
67185;SDS011;54116;53.518;49.398;2023-03-19T14:58:13;21.15;;;9.98;;
67185;SDS011;54116;53.518;49.398;2023-03-19T15:00:41;21.10;;;9.80;;
67185;SDS011;54116;53.518;49.398;2023-03-19T15:03:28;26.52;;;11.38;;
67185;SDS011;54116;53.518;49.398;2023-03-19T15:05:58;25.52;;;11.45;;
67185;SDS011;54116;53.518;49.398;2023-03-19T15:08:26;21.02;;;10.05;;
67185;SDS011;54116;53.518;49.398;2023-03-19T15:19:01;22.17;;;9.20;;
67185;SDS011;54116;53.518;49.398;2023-03-19T15:21:31;18.65;;;8.23;;
67185;SDS011;54116;53.518;49.398;2023-03-19T15:23:57;18.65;;;9.07;;
67185;SDS011;54116;53.518;49.398;2023-03-19T15:26:30;18.42;;;10.10;;
67185;SDS011;54116;53.518;49.398;2023-03-19T15:28:59;17.05;;;8.68;;
67185;SDS011;54116;53.518;49.398;2023-03-19T15:31:44;17.60;;;8.52;;
67185;SDS011;54116;53.518;49.398;2023-03-19T15:34:16;14.57;;;7.53;;
67185;SDS011;54116;53.518;49.398;2023-03-19T15:36:44;18.58;;;8.23;;
67185;SDS011;54116;53.518;49.398;2023-03-19T15:39:11;16.27;;;7.85;;
67185;SDS011;54116;53.518;49.398;2023-03-19T15:41:42;18.55;;;8.35;;
67185;SDS011;54116;53.518;49.398;2023-03-19T15:44:14;14.35;;;8.25;;
67185;SDS011;54116;53.518;49.398;2023-03-19T15:46:45;14.82;;;7.28;;
67185;SDS011;54116;53.518;49.398;2023-03-19T15:49:24;13.80;;;7.53;;
67185;SDS011;54116;53.518;49.398;2023-03-19T15:51:57;15.98;;;7.88;;
67185;SDS011;54116;53.518;49.398;2023-03-19T15:54:27;15.63;;;6.95;;
67185;SDS011;54116;53.518;49.398;2023-03-19T15:56:53;14.55;;;6.82;;
67185;SDS011;54116;53.518;49.398;2023-03-19T15:59:21;13.98;;;7.22;;
67185;SDS011;54116;53.518;49.398;2023-03-19T16:01:51;13.90;;;6.95;;
67185;SDS011;54116;53.518;49.398;2023-03-19T16:04:22;12.77;;;6.72;;
67185;SDS011;54116;53.518;49.398;2023-03-19T16:06:52;12.45;;;6.00;;
67185;SDS011;54116;53.518;49.398;2023-03-19T16:09:25;12.60;;;6.40;;
67185;SDS011;54116;53.518;49.398;2023-03-19T16:11:55;14.52;;;6.63;;
67185;SDS011;54116;53.518;49.398;2023-03-19T16:16:51;11.82;;;6.72;;
67185;SDS011;54116;53.518;49.398;2023-03-19T16:21:59;11.82;;;6.13;;
67185;SDS011;54116;53.518;49.398;2023-03-19T16:24:35;12.63;;;6.93;;
67185;SDS011;54116;53.518;49.398;2023-03-19T16:27:15;11.73;;;5.88;;
67185;SDS011;54116;53.518;49.398;2023-03-19T16:29:43;12.02;;;6.55;;
67185;SDS011;54116;53.518;49.398;2023-03-19T16:32:20;15.45;;;7.28;;
67185;SDS011;54116;53.518;49.398;2023-03-19T16:34:52;12.00;;;5.72;;
67185;SDS011;54116;53.518;49.398;2023-03-19T16:39:54;13.25;;;6.50;;
67185;SDS011;54116;53.518;49.398;2023-03-19T16:45:07;11.45;;;5.60;;
67185;SDS011;54116;53.518;49.398;2023-03-19T16:47:43;11.25;;;6.05;;
67185;SDS011;54116;53.518;49.398;2023-03-19T16:50:11;14.07;;;6.22;;
67185;SDS011;54116;53.518;49.398;2023-03-19T16:52:38;13.60;;;7.32;;
67185;SDS011;54116;53.518;49.398;2023-03-19T16:55:10;11.30;;;6.25;;
67185;SDS011;54116;53.518;49.398;2023-03-19T16:57:40;11.50;;;5.53;;
67185;SDS011;54116;53.518;49.398;2023-03-19T17:00:09;12.65;;;6.13;;
67185;SDS011;54116;53.518;49.398;2023-03-19T17:02:38;13.50;;;6.22;;
67185;SDS011;54116;53.518;49.398;2023-03-19T17:05:11;12.13;;;6.00;;
67185;SDS011;54116;53.518;49.398;2023-03-19T17:07:39;12.63;;;6.07;;
67185;SDS011;54116;53.518;49.398;2023-03-19T17:10:18;12.93;;;6.43;;
67185;SDS011;54116;53.518;49.398;2023-03-19T17:12:47;13.90;;;7.07;;
67185;SDS011;54116;53.518;49.398;2023-03-19T17:17:48;13.57;;;7.05;;
67185;SDS011;54116;53.518;49.398;2023-03-19T17:20:19;14.30;;;7.57;;
67185;SDS011;54116;53.518;49.398;2023-03-19T17:22:52;12.82;;;7.25;;
67185;SDS011;54116;53.518;49.398;2023-03-19T17:25:18;13.65;;;7.03;;
67185;SDS011;54116;53.518;49.398;2023-03-19T17:27:45;17.73;;;6.75;;
67185;SDS011;54116;53.518;49.398;2023-03-19T17:30:12;14.40;;;7.18;;
67185;SDS011;54116;53.518;49.398;2023-03-19T17:32:39;13.68;;;7.38;;
67185;SDS011;54116;53.518;49.398;2023-03-19T17:35:12;12.85;;;6.18;;
67185;SDS011;54116;53.518;49.398;2023-03-19T17:37:40;14.38;;;6.90;;
67185;SDS011;54116;53.518;49.398;2023-03-19T17:40:25;12.55;;;5.82;;
67185;SDS011;54116;53.518;49.398;2023-03-19T17:42:54;13.18;;;6.57;;
67185;SDS011;54116;53.518;49.398;2023-03-19T17:45:29;13.57;;;6.45;;
67185;SDS011;54116;53.518;49.398;2023-03-19T17:47:57;15.30;;;6.13;;
67185;SDS011;54116;53.518;49.398;2023-03-19T17:50:28;11.65;;;5.85;;
67185;SDS011;54116;53.518;49.398;2023-03-19T17:52:56;13.73;;;5.80;;
67185;SDS011;54116;53.518;49.398;2023-03-19T17:55:27;11.40;;;5.40;;
67185;SDS011;54116;53.518;49.398;2023-03-19T17:57:54;13.70;;;6.47;;
67185;SDS011;54116;53.518;49.398;2023-03-19T18:00:22;14.07;;;5.97;;
67185;SDS011;54116;53.518;49.398;2023-03-19T18:02:53;14.55;;;6.15;;